KDFW/DFW METAR and TAF weather

Enter ICAO airport designator
Station Type Date Time Source
KDFW METAR 2017/12/15 09:53 UTC NOAA

KDFW 150953Z 31008KT 10SM SCT250 04/M03 A3022 RMK AO2 SLP233 T00441028


Station Type Date Time Source
KDFW Decoded METAR 2017/12/15 09:53 UTC NOAA

DALLAS/FT. WORTH INTERNATIONAL AIRPORT , TX, United States (KDFW) 32-54N 097-02W 174M
Dec 15, 2017 - 04:53 AM EST / 2017.12.15 0953 UTC
Wind: from the NW (310 degrees) at 9 MPH (8 KT):0
Visibility: 10 mile(s):0
Sky conditions: partly cloudy
Temperature: 39.9 F (4.4 C)
Dew Point: 27.0 F (-2.8 C)
Relative Humidity: 59%
Pressure (altimeter): 30.22 in. Hg (1023 hPa)
ob: KDFW 150953Z 31008KT 10SM SCT250 04/M03 A3022 RMK AO2 SLP233 T00441028
cycle: 10

Station Type Date Time Source
KDFW TAF 2017/12/15 09:58 UTC NOAA

TAF
AMD KDFW 150858Z 1509/1612 34009KT P6SM SCT250
FM160200 21006KT P6SM BKN250


Example: see airport list